createdAt,value
2018-09-12T00:02:19.352Z,8.30
2018-09-12T00:04:48.938Z,9.00
2018-09-12T00:07:18.054Z,9.00
2018-09-12T00:09:47.170Z,8.57
2018-09-12T00:12:17.158Z,9.00
2018-09-12T00:14:47.243Z,10.60
2018-09-12T00:17:17.000Z,9.77
2018-09-12T00:19:46.599Z,9.30
2018-09-12T00:22:16.104Z,10.00
2018-09-12T00:24:45.159Z,10.77
2018-09-12T00:27:14.326Z,9.27
2018-09-12T00:29:43.501Z,9.27
2018-09-12T00:32:12.763Z,10.00
2018-09-12T00:34:41.901Z,8.80
2018-09-12T00:37:11.811Z,9.50
2018-09-12T00:39:47.702Z,10.13
2018-09-12T00:42:16.841Z,9.50
2018-09-12T00:44:46.066Z,8.57
2018-09-12T00:47:15.211Z,9.13
2018-09-12T00:49:45.152Z,8.53
2018-09-12T00:52:14.367Z,8.17
2018-09-12T00:54:45.062Z,7.83
2018-09-12T00:57:15.310Z,8.07
2018-09-12T00:59:44.426Z,10.17
2018-09-12T01:02:13.607Z,8.33
2018-09-12T01:04:43.423Z,9.40
2018-09-12T01:07:12.584Z,7.93
2018-09-12T01:09:41.782Z,7.00
2018-09-12T01:12:11.272Z,7.20
2018-09-12T01:14:40.496Z,7.40
2018-09-12T01:17:10.335Z,8.50
2018-09-12T01:19:39.487Z,8.93
2018-09-12T01:22:09.226Z,7.67
2018-09-12T01:24:38.473Z,8.90
2018-09-12T01:27:08.086Z,7.97
2018-09-12T01:29:37.303Z,8.07
2018-09-12T01:32:06.501Z,7.80
2018-09-12T01:34:35.742Z,7.70
2018-09-12T01:37:05.267Z,7.67
2018-09-12T01:39:34.493Z,8.50
2018-09-12T01:42:03.231Z,8.17
2018-09-12T01:44:32.372Z,9.27
2018-09-12T01:47:01.508Z,8.63
2018-09-12T01:49:30.672Z,8.23
2018-09-12T01:51:59.842Z,8.20
2018-09-12T01:54:28.981Z,8.43
2018-09-12T01:56:58.102Z,8.10
2018-09-12T01:59:27.226Z,8.03
2018-09-12T02:01:56.416Z,7.37
2018-09-12T02:04:25.575Z,8.40
2018-09-12T02:06:54.739Z,7.97
2018-09-12T02:09:23.887Z,8.13
2018-09-12T02:11:53.047Z,8.10
2018-09-12T02:14:22.162Z,8.13
2018-09-12T02:16:51.280Z,9.10
2018-09-12T02:19:20.397Z,7.60
2018-09-12T02:21:50.462Z,8.00
2018-09-12T02:24:20.449Z,9.13
2018-09-12T02:26:49.546Z,9.40
2018-09-12T02:29:18.736Z,9.73
2018-09-12T02:31:48.333Z,8.60
2018-09-12T02:34:17.958Z,8.20
2018-09-12T02:36:46.751Z,9.13
2018-09-12T02:39:16.436Z,8.40
2018-09-12T02:41:45.571Z,9.00
2018-09-12T02:44:14.757Z,8.30
2018-09-12T02:46:43.866Z,8.40
2018-09-12T02:49:12.997Z,7.63
2018-09-12T02:51:42.118Z,8.60
2018-09-12T02:54:11.276Z,8.80
2018-09-12T02:56:41.141Z,9.10
2018-09-12T02:59:10.310Z,8.30
2018-09-12T03:01:39.398Z,8.63
2018-09-12T03:04:09.979Z,8.80
2018-09-12T03:06:39.506Z,9.90
2018-09-12T03:09:09.482Z,7.80
2018-09-12T03:11:38.651Z,8.57
2018-09-12T03:14:07.794Z,7.90
2018-09-12T03:16:37.569Z,8.60
2018-09-12T03:19:06.705Z,9.03
2018-09-12T03:21:35.787Z,8.03
2018-09-12T03:24:05.320Z,8.97
2018-09-12T03:26:34.461Z,8.50
2018-09-12T03:29:03.750Z,9.20
2018-09-12T03:31:33.017Z,9.17
2018-09-12T03:34:02.405Z,9.60
2018-09-12T03:36:31.553Z,8.87
2018-09-12T03:39:00.665Z,7.43
2018-09-12T03:41:29.837Z,9.53
2018-09-12T03:43:58.913Z,10.83
2018-09-12T03:46:28.500Z,8.70
2018-09-12T03:48:57.631Z,10.20
2018-09-12T03:51:26.738Z,11.10
2018-09-12T03:53:55.839Z,8.90
2018-09-12T03:56:24.978Z,9.03
2018-09-12T03:58:54.064Z,10.90
2018-09-12T04:01:23.166Z,10.73
2018-09-12T04:03:52.490Z,8.70
2018-09-12T04:06:21.954Z,9.87
2018-09-12T04:08:51.053Z,9.07
2018-09-12T04:11:20.214Z,9.03
2018-09-12T04:13:49.478Z,9.47
2018-09-12T04:16:18.596Z,9.30
2018-09-12T04:18:47.786Z,9.70
2018-09-12T04:21:16.979Z,9.13
2018-09-12T04:23:46.146Z,10.20
2018-09-12T04:26:15.355Z,10.33
2018-09-12T04:28:45.134Z,10.33
2018-09-12T04:31:14.256Z,9.80
2018-09-12T04:33:43.857Z,8.73
2018-09-12T04:36:12.996Z,9.80
2018-09-12T04:38:42.138Z,9.30
2018-09-12T04:41:11.311Z,9.50
2018-09-12T04:43:40.409Z,9.50
2018-09-12T04:46:09.541Z,10.70
2018-09-12T04:48:38.753Z,10.30
2018-09-12T04:51:07.774Z,11.00
2018-09-12T04:53:36.907Z,11.67
2018-09-12T04:56:06.049Z,11.43
2018-09-12T04:58:35.183Z,10.73
2018-09-12T05:01:04.358Z,10.20
2018-09-12T05:03:33.490Z,12.30
2018-09-12T05:06:03.253Z,11.10
2018-09-12T05:08:32.386Z,11.53
2018-09-12T05:11:01.574Z,10.57
2018-09-12T05:13:31.466Z,10.77
2018-09-12T05:16:00.705Z,10.70
2018-09-12T05:18:29.726Z,11.13
2018-09-12T05:20:58.897Z,11.73
2018-09-12T05:23:28.449Z,11.67
2018-09-12T05:25:57.774Z,11.50
2018-09-12T05:28:27.395Z,11.03
2018-09-12T05:30:57.175Z,10.47
2018-09-12T05:33:26.144Z,11.20
2018-09-12T05:35:55.366Z,11.20
2018-09-12T05:38:24.606Z,10.50
2018-09-12T05:40:53.986Z,9.73
2018-09-12T05:43:23.098Z,9.80
2018-09-12T05:45:52.239Z,11.00
2018-09-12T05:48:21.362Z,10.00
2018-09-12T05:50:50.482Z,10.37
2018-09-12T05:53:20.229Z,9.73
2018-09-12T05:55:49.386Z,10.33
2018-09-12T05:58:18.522Z,9.97
2018-09-12T06:00:47.669Z,9.67
2018-09-12T06:03:16.861Z,8.90
2018-09-12T06:05:45.970Z,9.23
2018-09-12T06:08:15.099Z,8.83
2018-09-12T06:10:44.202Z,10.40
2018-09-12T06:13:13.446Z,10.00
2018-09-12T06:15:42.574Z,8.77
2018-09-12T06:18:11.679Z,8.67
2018-09-12T06:20:40.793Z,8.50
2018-09-12T06:23:09.925Z,9.50
2018-09-12T06:25:39.237Z,7.57
2018-09-12T06:28:08.138Z,9.33
2018-09-12T06:30:37.672Z,8.50
2018-09-12T06:33:06.797Z,9.27
2018-09-12T06:35:36.718Z,9.80
2018-09-12T06:38:05.905Z,10.00
2018-09-12T06:40:35.001Z,10.37
2018-09-12T06:43:04.140Z,9.83
2018-09-12T06:45:33.673Z,9.60
2018-09-12T06:48:02.816Z,10.70
2018-09-12T06:50:31.939Z,9.10
2018-09-12T06:53:01.062Z,11.17
2018-09-12T06:55:30.177Z,10.17
2018-09-12T06:57:59.329Z,11.10
2018-09-12T07:00:28.494Z,9.67
2018-09-12T07:02:57.549Z,9.60
2018-09-12T07:05:26.673Z,9.57
2018-09-12T07:07:55.771Z,11.03
2018-09-12T07:10:24.895Z,10.17
2018-09-12T07:12:53.997Z,9.60
2018-09-12T07:15:23.094Z,8.70
2018-09-12T07:17:52.606Z,10.40
2018-09-12T07:20:21.778Z,10.10
2018-09-12T07:22:50.917Z,10.00
2018-09-12T07:25:20.066Z,9.70
2018-09-12T07:27:49.402Z,9.70
2018-09-12T07:30:18.736Z,10.17
2018-09-12T07:32:47.810Z,10.27
2018-09-12T07:35:16.946Z,11.27
2018-09-12T07:37:46.086Z,9.53
2018-09-12T07:40:15.356Z,8.97
2018-09-12T07:42:44.514Z,10.93
2018-09-12T07:45:13.618Z,9.80
2018-09-12T07:47:42.879Z,11.10
2018-09-12T07:50:12.563Z,9.80
2018-09-12T07:52:41.678Z,9.90
2018-09-12T07:55:10.543Z,9.60
2018-09-12T07:57:39.659Z,7.90
2018-09-12T08:00:08.886Z,10.13
2018-09-12T08:02:37.866Z,8.60
2018-09-12T08:05:08.329Z,9.97
2018-09-12T08:07:37.394Z,9.07
2018-09-12T08:10:07.038Z,9.43
2018-09-12T08:12:36.184Z,10.07
2018-09-12T08:15:05.323Z,10.53
2018-09-12T08:17:34.433Z,10.20
2018-09-12T08:20:03.606Z,9.13
2018-09-12T08:22:32.755Z,9.70
2018-09-12T08:25:01.903Z,8.93
2018-09-12T08:27:31.018Z,9.03
2018-09-12T08:30:00.231Z,9.53
2018-09-12T08:32:29.369Z,9.10
2018-09-12T08:34:58.482Z,8.63
2018-09-12T08:37:27.600Z,8.40
2018-09-12T08:39:56.734Z,9.10
2018-09-12T08:42:26.063Z,8.37
2018-09-12T08:44:55.207Z,8.47
2018-09-12T08:47:24.443Z,8.50
2018-09-12T08:49:53.607Z,7.67
2018-09-12T08:52:22.818Z,7.97
2018-09-12T08:54:52.056Z,8.80
2018-09-12T08:57:21.243Z,7.60
2018-09-12T08:59:50.946Z,8.43
2018-09-12T09:02:20.478Z,8.37
2018-09-12T09:04:49.695Z,7.60
2018-09-12T09:07:18.970Z,6.80
2018-09-12T09:09:47.713Z,8.30
2018-09-12T09:12:16.832Z,7.50
2018-09-12T09:14:45.953Z,7.40
2018-09-12T09:17:15.550Z,7.40
2018-09-12T09:19:44.650Z,7.10
2018-09-12T09:22:13.791Z,7.90
2018-09-12T09:24:43.098Z,7.50
2018-09-12T09:27:12.206Z,7.73
2018-09-12T09:29:41.346Z,8.83
2018-09-12T09:32:11.662Z,8.20
2018-09-12T09:34:40.915Z,7.33
2018-09-12T09:37:10.066Z,8.13
2018-09-12T09:39:39.238Z,7.77
2018-09-12T09:42:08.403Z,8.70
2018-09-12T09:44:38.084Z,8.40
2018-09-12T09:47:07.298Z,8.30
2018-09-12T09:49:37.044Z,8.60
2018-09-12T09:52:06.420Z,7.87
2018-09-12T09:54:36.141Z,8.20
2018-09-12T09:57:06.541Z,7.70
2018-09-12T09:59:36.078Z,7.43
2018-09-12T10:02:10.498Z,6.77
2018-09-12T10:04:45.289Z,7.73
2018-09-12T10:07:19.801Z,7.43
2018-09-12T10:09:52.424Z,6.97
2018-09-12T10:12:21.794Z,7.30
2018-09-12T10:14:50.886Z,6.67
2018-09-12T10:17:20.010Z,7.73
2018-09-12T10:19:49.152Z,6.97
2018-09-12T10:22:18.266Z,7.40
2018-09-12T10:24:47.350Z,7.47
2018-09-12T10:27:16.461Z,6.43
2018-09-12T10:29:45.542Z,6.30
2018-09-12T10:32:14.674Z,7.27
2018-09-12T10:34:45.134Z,5.93
2018-09-12T10:37:15.691Z,6.50
2018-09-12T10:39:44.793Z,6.43
2018-09-12T10:42:14.001Z,7.60
2018-09-12T10:44:44.652Z,5.83
2018-09-12T10:47:13.829Z,6.40
2018-09-12T10:49:42.636Z,6.63
2018-09-12T10:52:12.222Z,5.93
2018-09-12T10:54:41.970Z,5.60
2018-09-12T10:57:11.211Z,6.50
2018-09-12T10:59:40.627Z,6.20
2018-09-12T11:02:10.115Z,6.50
2018-09-12T11:04:39.235Z,5.90
2018-09-12T11:07:08.381Z,6.60
2018-09-12T11:09:37.503Z,6.33
2018-09-12T11:12:06.654Z,6.70
2018-09-12T11:14:35.832Z,6.30
2018-09-12T11:17:04.922Z,6.60
2018-09-12T11:19:34.050Z,6.27
2018-09-12T11:22:03.726Z,5.93
2018-09-12T11:24:32.894Z,6.27
2018-09-12T11:27:02.262Z,6.53
2018-09-12T11:29:31.397Z,6.33
2018-09-12T11:32:00.497Z,5.80
2018-09-12T11:34:29.583Z,6.00
2018-09-12T11:36:58.682Z,5.93
2018-09-12T11:39:27.782Z,5.40
2018-09-12T11:41:56.862Z,6.10
2018-09-12T11:44:25.974Z,6.00
2018-09-12T11:46:55.363Z,6.00
2018-09-12T11:49:24.887Z,7.13
2018-09-12T11:51:53.985Z,7.93
2018-09-12T11:54:23.105Z,6.20
2018-09-12T11:56:52.222Z,6.80
2018-09-12T11:59:21.313Z,5.60
2018-09-12T12:01:50.410Z,6.60
2018-09-12T12:04:20.294Z,6.00
2018-09-12T12:06:49.425Z,5.30
2018-09-12T12:09:18.509Z,7.07
2018-09-12T12:11:47.662Z,6.47
2018-09-12T12:14:16.873Z,6.27
2018-09-12T12:16:46.144Z,5.97
2018-09-12T12:19:15.234Z,5.80
2018-09-12T12:21:44.333Z,6.30
2018-09-12T12:24:13.419Z,6.80
2018-09-12T12:26:42.561Z,6.77
2018-09-12T12:29:11.639Z,5.80
2018-09-12T12:31:40.731Z,6.47
2018-09-12T12:34:09.850Z,6.40
2018-09-12T12:36:38.962Z,6.60
2018-09-12T12:39:09.866Z,5.80
2018-09-12T12:41:38.962Z,6.37
2018-09-12T12:44:08.618Z,7.40
2018-09-12T12:46:37.689Z,6.97
2018-09-12T12:49:07.611Z,6.90
2018-09-12T12:51:37.353Z,5.60
2018-09-12T12:54:06.481Z,6.20
2018-09-12T12:56:35.578Z,6.30
2018-09-12T12:59:05.734Z,7.30
2018-09-12T13:01:34.838Z,6.47
2018-09-12T13:04:04.583Z,6.40
2018-09-12T13:06:33.724Z,6.03
2018-09-12T13:09:02.893Z,6.13
2018-09-12T13:11:32.259Z,6.50
2018-09-12T13:14:01.541Z,7.60
2018-09-12T13:16:30.760Z,6.97
2018-09-12T13:19:00.071Z,6.80
2018-09-12T13:21:29.812Z,6.60
2018-09-12T13:23:58.886Z,6.67
2018-09-12T13:26:28.038Z,7.03
2018-09-12T13:28:57.141Z,6.10
2018-09-12T13:31:26.279Z,6.90
2018-09-12T13:33:55.447Z,6.50
2018-09-12T13:36:24.545Z,6.03
2018-09-12T13:38:53.770Z,6.20
2018-09-12T13:41:22.956Z,6.40
2018-09-12T13:43:52.090Z,5.30
2018-09-12T13:46:21.219Z,6.10
2018-09-12T13:48:50.451Z,5.13
2018-09-12T13:51:19.590Z,5.50
2018-09-12T13:53:48.625Z,5.77
2018-09-12T13:56:18.066Z,5.70
2018-09-12T13:58:52.854Z,5.33
2018-09-12T14:01:22.245Z,4.93
2018-09-12T14:03:51.347Z,4.77
2018-09-12T14:06:20.443Z,4.80
2018-09-12T14:08:49.672Z,5.60
2018-09-12T14:11:18.738Z,6.03
2018-09-12T14:13:47.918Z,5.40
2018-09-12T14:16:17.173Z,5.63
2018-09-12T14:18:46.324Z,6.03
2018-09-12T14:21:15.534Z,5.33
2018-09-12T14:23:44.901Z,5.77
2018-09-12T14:26:14.002Z,5.53
2018-09-12T14:28:43.114Z,4.70
2018-09-12T14:31:12.494Z,4.43
2018-09-12T14:33:41.614Z,5.90
2018-09-12T14:36:11.117Z,5.60
2018-09-12T14:38:41.632Z,5.30
2018-09-12T14:41:10.727Z,5.30
2018-09-12T14:43:39.874Z,4.93
2018-09-12T14:46:09.165Z,6.40
2018-09-12T14:48:38.283Z,5.60
2018-09-12T14:51:07.626Z,5.23
2018-09-12T14:53:36.769Z,5.83
2018-09-12T14:56:06.250Z,5.50
2018-09-12T14:58:34.979Z,5.67
2018-09-12T15:01:04.126Z,5.53
2018-09-12T15:03:33.908Z,5.40
2018-09-12T15:06:03.011Z,5.57
2018-09-12T15:08:32.373Z,5.67
2018-09-12T15:11:01.488Z,5.63
2018-09-12T15:13:31.125Z,5.20
2018-09-12T15:16:00.301Z,5.13
2018-09-12T15:18:29.409Z,5.73
2018-09-12T15:20:59.290Z,5.50
2018-09-12T15:23:28.463Z,6.50
2018-09-12T15:25:58.089Z,6.97
2018-09-12T15:28:27.234Z,5.37
2018-09-12T15:30:56.512Z,5.30
2018-09-12T15:33:25.814Z,5.27
2018-09-12T15:35:55.750Z,5.03
2018-09-12T15:38:24.930Z,5.03
2018-09-12T15:40:54.698Z,5.93
2018-09-12T15:43:23.818Z,4.97
2018-09-12T15:45:52.955Z,5.70
2018-09-12T15:48:22.058Z,5.37
2018-09-12T15:50:51.152Z,5.73
2018-09-12T15:53:20.253Z,5.80
2018-09-12T15:55:49.506Z,6.23
2018-09-12T15:58:18.737Z,6.30
2018-09-12T16:00:47.974Z,5.43
2018-09-12T16:03:17.169Z,5.73
2018-09-12T16:05:46.447Z,5.33
2018-09-12T16:08:15.869Z,5.50
2018-09-12T16:10:45.455Z,5.77
2018-09-12T16:13:15.298Z,4.90
2018-09-12T16:15:44.475Z,5.30
2018-09-12T16:18:14.126Z,5.40
2018-09-12T16:20:43.391Z,5.63
2018-09-12T16:23:12.620Z,5.37
2018-09-12T16:25:41.782Z,5.47
2018-09-12T16:28:11.147Z,5.13
2018-09-12T16:30:40.343Z,5.00
2018-09-12T16:33:09.561Z,5.90
2018-09-12T16:35:38.761Z,5.27
2018-09-12T16:38:07.959Z,5.53
2018-09-12T16:40:37.222Z,5.50
2018-09-12T16:43:06.951Z,6.50
2018-09-12T16:45:36.157Z,6.63
2018-09-12T16:48:05.458Z,5.57
2018-09-12T16:50:34.138Z,7.53
2018-09-12T16:53:03.228Z,8.00
2018-09-12T16:55:32.355Z,6.73
2018-09-12T16:58:01.264Z,7.03
2018-09-12T17:00:30.350Z,7.53
2018-09-12T17:02:59.669Z,6.03
2018-09-12T17:05:29.353Z,6.40
2018-09-12T17:07:58.898Z,7.00
2018-09-12T17:10:27.998Z,7.10
2018-09-12T17:12:58.578Z,7.70
2018-09-12T17:15:27.873Z,6.07
2018-09-12T17:17:58.357Z,6.63
2018-09-12T17:20:27.899Z,7.37
2018-09-12T17:22:57.024Z,6.57
2018-09-12T17:25:26.125Z,6.93
2018-09-12T17:27:55.778Z,7.53
2018-09-12T17:30:24.939Z,7.07
2018-09-12T17:32:54.395Z,6.93
2018-09-12T17:35:23.508Z,8.00
2018-09-12T17:37:52.673Z,7.10
2018-09-12T17:40:21.809Z,11.33
2018-09-12T17:42:50.949Z,6.93
2018-09-12T17:45:20.098Z,6.30
2018-09-12T17:47:49.338Z,6.23
2018-09-12T17:50:18.902Z,7.40
2018-09-12T17:52:48.022Z,6.93
2018-09-12T17:55:17.137Z,6.83
2018-09-12T17:57:47.046Z,8.07
2018-09-12T18:00:17.038Z,8.10
2018-09-12T18:02:46.775Z,8.60
2018-09-12T18:05:16.293Z,11.50
2018-09-12T18:07:45.618Z,7.40
2018-09-12T18:10:14.838Z,9.27
2018-09-12T18:12:44.437Z,6.40
2018-09-12T18:15:13.814Z,6.57
2018-09-12T18:17:42.961Z,7.23
2018-09-12T18:20:12.063Z,7.90
2018-09-12T18:22:41.616Z,7.33
2018-09-12T18:25:10.781Z,7.30
2018-09-12T18:27:42.318Z,7.03
2018-09-12T18:30:12.407Z,7.77
2018-09-12T18:32:41.725Z,6.10
2018-09-12T18:35:11.604Z,7.40
2018-09-12T18:37:41.221Z,6.77
2018-09-12T18:40:09.914Z,6.73
2018-09-12T18:42:39.714Z,6.70
2018-09-12T18:45:08.951Z,6.90
2018-09-12T18:47:38.060Z,9.10
2018-09-12T18:50:07.258Z,8.13
2018-09-12T18:52:36.496Z,9.20
2018-09-12T18:55:05.633Z,8.00
2018-09-12T18:57:34.722Z,7.60
2018-09-12T19:00:04.206Z,7.63
2018-09-12T19:02:33.694Z,7.10
2018-09-12T19:05:02.417Z,7.50
2018-09-12T19:07:31.583Z,8.40
2018-09-12T19:10:00.733Z,8.67
2018-09-12T19:12:29.858Z,6.80
2018-09-12T19:14:58.961Z,8.77
2018-09-12T19:17:28.165Z,6.73
2018-09-12T19:19:57.295Z,6.40
2018-09-12T19:22:26.685Z,7.30
2018-09-12T19:24:55.446Z,6.73
2018-09-12T19:27:24.725Z,6.73
2018-09-12T19:29:54.005Z,7.00
2018-09-12T19:32:23.413Z,7.90
2018-09-12T19:34:53.057Z,8.20
2018-09-12T19:37:21.862Z,9.37
2018-09-12T19:39:50.989Z,7.80
2018-09-12T19:42:20.091Z,7.97
2018-09-12T19:44:49.230Z,8.23
2018-09-12T19:47:18.058Z,8.77
2018-09-12T19:49:46.905Z,9.00
2018-09-12T19:52:16.173Z,7.60
2018-09-12T19:54:45.595Z,8.77
2018-09-12T19:57:14.703Z,7.80
2018-09-12T19:59:43.997Z,7.80
2018-09-12T20:02:13.362Z,8.70
2018-09-12T20:04:42.818Z,8.20
2018-09-12T20:07:11.940Z,8.43
2018-09-12T20:09:41.026Z,8.30
2018-09-12T20:12:09.976Z,9.13
2018-09-12T20:14:39.119Z,8.43
2018-09-12T20:17:08.281Z,8.90
2018-09-12T20:19:37.386Z,10.20
2018-09-12T20:22:07.917Z,9.00
2018-09-12T20:24:37.147Z,8.67
2018-09-12T20:27:06.558Z,8.73
2018-09-12T20:29:35.658Z,8.00
2018-09-12T20:32:04.757Z,8.63
2018-09-12T20:34:33.913Z,7.47
2018-09-12T20:37:03.236Z,7.40
2018-09-12T20:39:32.492Z,8.30
2018-09-12T20:42:01.322Z,9.20
2018-09-12T20:44:30.249Z,7.80
2018-09-12T20:46:59.704Z,7.90
2018-09-12T20:49:28.858Z,9.57
2018-09-12T20:52:00.253Z,10.43
2018-09-12T20:54:29.562Z,10.10
2018-09-12T20:56:58.751Z,9.93
2018-09-12T20:59:27.874Z,10.47
2018-09-12T21:01:57.306Z,10.30
2018-09-12T21:04:26.070Z,9.93
2018-09-12T21:06:55.578Z,11.53
2018-09-12T21:09:24.590Z,12.47
2018-09-12T21:11:53.742Z,13.70
2018-09-12T21:14:23.244Z,12.37
2018-09-12T21:16:52.441Z,16.00
2018-09-12T21:19:21.550Z,13.63
2018-09-12T21:21:55.501Z,13.10
2018-09-12T21:24:26.033Z,14.03
2018-09-12T21:27:02.092Z,13.83
2018-09-12T21:29:34.036Z,15.67
2018-09-12T21:32:05.686Z,13.50
2018-09-12T21:34:44.049Z,13.57
2018-09-12T21:37:13.263Z,13.10
2018-09-12T21:39:42.516Z,15.40
2018-09-12T21:42:11.638Z,14.40
2018-09-12T21:44:40.742Z,13.23
2018-09-12T21:47:09.957Z,14.37
2018-09-12T21:49:39.134Z,13.20
2018-09-12T21:52:08.282Z,10.40
2018-09-12T21:54:37.634Z,13.20
2018-09-12T21:57:06.772Z,10.93
2018-09-12T21:59:35.975Z,12.40
2018-09-12T22:02:05.887Z,12.60
2018-09-12T22:04:35.034Z,12.80
2018-09-12T22:07:04.162Z,14.17
2018-09-12T22:09:33.332Z,14.60
2018-09-12T22:12:02.635Z,14.30
2018-09-12T22:14:31.851Z,15.00
2018-09-12T22:17:01.298Z,13.70
2018-09-12T22:19:30.564Z,13.73
2018-09-12T22:21:59.834Z,14.30
2018-09-12T22:24:29.487Z,14.80
2018-09-12T22:26:59.322Z,12.83
2018-09-12T22:29:28.900Z,13.73
2018-09-12T22:31:58.114Z,13.87
2018-09-12T22:34:27.337Z,12.90
2018-09-12T22:36:57.574Z,16.60
2018-09-12T22:39:27.438Z,18.10
2018-09-12T22:41:57.283Z,19.77
2018-09-12T22:44:27.075Z,17.77
2018-09-12T22:46:56.314Z,18.43
2018-09-12T22:49:25.621Z,16.80
2018-09-12T22:51:54.949Z,18.70
2018-09-12T22:54:24.300Z,20.00
2018-09-12T22:56:54.033Z,19.17
2018-09-12T22:59:23.413Z,20.43
2018-09-12T23:01:53.017Z,19.37
2018-09-12T23:04:22.318Z,19.37
2018-09-12T23:06:51.593Z,20.93
2018-09-12T23:09:20.965Z,17.20
2018-09-12T23:11:50.248Z,18.30
2018-09-12T23:14:19.486Z,20.13
2018-09-12T23:16:48.773Z,21.13
2018-09-12T23:19:17.983Z,20.07
2018-09-12T23:21:47.210Z,18.33
2018-09-12T23:24:16.569Z,18.13
2018-09-12T23:26:46.209Z,20.50
2018-09-12T23:29:15.482Z,19.10
2018-09-12T23:31:44.731Z,20.47
2018-09-12T23:34:14.128Z,18.87
2018-09-12T23:36:43.363Z,17.50
2018-09-12T23:39:14.250Z,19.77
2018-09-12T23:41:43.486Z,21.07
2018-09-12T23:44:12.603Z,23.10
2018-09-12T23:46:41.759Z,23.87
2018-09-12T23:49:10.926Z,25.87
2018-09-12T23:51:40.105Z,23.23
2018-09-12T23:54:09.234Z,24.00
2018-09-12T23:56:38.409Z,28.53
2018-09-12T23:59:07.578Z,30.13
